createdAt,value
2022-08-30T00:01:32.147Z,5.07
2022-08-30T00:04:02.176Z,5.70
2022-08-30T00:06:31.587Z,5.50
2022-08-30T00:09:02.634Z,5.10
2022-08-30T00:11:30.659Z,5.87
2022-08-30T00:13:59.977Z,5.10
2022-08-30T00:16:28.065Z,5.53
2022-08-30T00:18:57.003Z,5.00
2022-08-30T00:21:27.145Z,4.90
2022-08-30T00:28:27.603Z,5.30
2022-08-30T00:30:56.449Z,4.70
2022-08-30T00:33:24.716Z,5.13
2022-08-30T00:35:52.931Z,5.30
2022-08-30T00:38:23.817Z,4.80
2022-08-30T00:40:52.489Z,4.40
2022-08-30T00:43:23.623Z,4.57
2022-08-30T00:45:54.047Z,4.67
2022-08-30T00:48:22.281Z,4.80
2022-08-30T00:50:55.204Z,4.67
2022-08-30T00:53:27.382Z,4.63
2022-08-30T00:55:57.464Z,5.30
2022-08-30T00:58:30.604Z,4.63
2022-08-30T01:01:02.247Z,4.70
2022-08-30T01:03:31.646Z,4.70
2022-08-30T01:06:01.884Z,5.00
2022-08-30T01:08:30.129Z,4.97
2022-08-30T01:10:59.254Z,4.77
2022-08-30T01:13:30.959Z,4.87
2022-08-30T01:16:02.477Z,4.50
2022-08-30T01:18:32.357Z,5.03
2022-08-30T01:21:10.346Z,5.00
2022-08-30T01:23:43.302Z,4.70
2022-08-30T01:26:12.805Z,5.23
2022-08-30T01:28:48.579Z,4.80
2022-08-30T01:31:17.128Z,5.00
2022-08-30T01:33:45.160Z,4.80
2022-08-30T01:36:15.010Z,5.40
2022-08-30T01:38:49.090Z,4.93
2022-08-30T01:41:19.770Z,5.10
2022-08-30T01:43:49.147Z,5.00
2022-08-30T01:46:26.598Z,5.00
2022-08-30T01:48:57.214Z,5.23
2022-08-30T01:51:27.675Z,5.20
2022-08-30T01:53:58.010Z,5.37
2022-08-30T01:56:28.055Z,4.57
2022-08-30T01:59:01.861Z,4.90
2022-08-30T02:01:33.344Z,4.80
2022-08-30T02:04:01.690Z,5.13
2022-08-30T02:06:30.177Z,5.00
2022-08-30T02:09:00.612Z,4.87
2022-08-30T02:11:28.831Z,4.80
2022-08-30T02:13:57.098Z,5.60
2022-08-30T02:16:27.656Z,4.87
2022-08-30T02:18:57.207Z,5.37
2022-08-30T02:21:27.589Z,5.20
2022-08-30T02:23:56.027Z,5.33
2022-08-30T02:26:26.085Z,5.60
2022-08-30T02:28:55.191Z,6.10
2022-08-30T02:31:23.846Z,5.30
2022-08-30T02:33:53.729Z,5.43
2022-08-30T02:36:22.979Z,5.33
2022-08-30T02:38:51.968Z,5.53
2022-08-30T02:41:20.891Z,5.47
2022-08-30T02:43:51.546Z,5.00
2022-08-30T02:46:20.295Z,4.97
2022-08-30T02:48:48.585Z,5.73
2022-08-30T02:51:16.915Z,4.73
2022-08-30T02:53:46.288Z,4.73
2022-08-30T02:56:15.654Z,4.70
2022-08-30T02:58:45.189Z,5.10
2022-08-30T03:01:16.856Z,5.47
2022-08-30T03:03:47.054Z,5.60
2022-08-30T03:06:15.575Z,5.10
2022-08-30T03:08:43.940Z,5.37
2022-08-30T03:11:13.766Z,5.50
2022-08-30T03:13:42.301Z,5.80
2022-08-30T03:16:10.815Z,5.37
2022-08-30T03:18:43.177Z,5.20
2022-08-30T03:21:12.715Z,6.10
2022-08-30T03:23:41.040Z,5.27
2022-08-30T03:26:10.613Z,5.40
2022-08-30T03:28:39.420Z,5.77
2022-08-30T03:31:08.884Z,5.50
2022-08-30T03:33:40.057Z,5.87
2022-08-30T03:36:11.793Z,5.17
2022-08-30T03:38:40.383Z,5.10
2022-08-30T03:41:09.159Z,5.03
2022-08-30T03:43:37.342Z,5.17
2022-08-30T03:46:06.165Z,5.83
2022-08-30T03:48:34.475Z,5.33
2022-08-30T03:51:02.577Z,5.53
2022-08-30T03:53:35.830Z,5.50
2022-08-30T03:56:04.571Z,5.23
2022-08-30T03:58:33.195Z,5.20
2022-08-30T04:01:01.310Z,5.70
2022-08-30T04:03:29.432Z,5.60
2022-08-30T04:05:57.687Z,5.50
2022-08-30T04:08:26.051Z,5.80
2022-08-30T04:10:56.183Z,5.53
2022-08-30T04:13:25.379Z,5.50
2022-08-30T04:15:53.567Z,5.37
2022-08-30T04:18:22.201Z,5.90
2022-08-30T04:20:51.869Z,5.20
2022-08-30T04:23:20.606Z,5.50
2022-08-30T04:25:49.008Z,5.43
2022-08-30T04:28:18.645Z,5.87
2022-08-30T04:30:46.798Z,5.80
2022-08-30T04:33:16.949Z,5.37
2022-08-30T04:35:47.517Z,5.87
2022-08-30T04:38:16.900Z,5.77
2022-08-30T04:40:46.008Z,5.40
2022-08-30T04:43:14.099Z,5.87
2022-08-30T04:45:44.210Z,5.87
2022-08-30T04:48:12.322Z,5.93
2022-08-30T04:50:40.628Z,5.87
2022-08-30T04:53:13.533Z,6.90
2022-08-30T04:55:42.145Z,6.77
2022-08-30T04:58:10.674Z,6.07
2022-08-30T05:00:42.079Z,6.10
2022-08-30T05:03:12.688Z,5.80
2022-08-30T05:05:40.992Z,6.13
2022-08-30T05:08:09.834Z,6.17
2022-08-30T05:10:40.439Z,5.37
2022-08-30T05:13:09.417Z,5.97
2022-08-30T05:15:39.740Z,6.00
2022-08-30T05:18:08.155Z,6.13
2022-08-30T05:20:44.021Z,6.43
2022-08-30T05:23:12.785Z,5.77
2022-08-30T05:25:43.246Z,6.03
2022-08-30T05:28:11.504Z,6.60
2022-08-30T05:30:39.643Z,6.30
2022-08-30T05:33:08.241Z,6.10
2022-08-30T05:35:36.374Z,6.07
2022-08-30T05:38:05.866Z,6.43
2022-08-30T05:40:35.149Z,6.47
2022-08-30T05:43:03.203Z,6.43
2022-08-30T05:45:31.481Z,6.13
2022-08-30T05:47:59.606Z,6.50
2022-08-30T05:50:27.918Z,6.40
2022-08-30T05:52:56.142Z,6.73
2022-08-30T05:55:25.699Z,6.90
2022-08-30T05:57:54.579Z,6.47
2022-08-30T06:00:23.698Z,6.77
2022-08-30T06:02:55.596Z,6.37
2022-08-30T06:05:24.079Z,6.40
2022-08-30T06:07:52.544Z,7.23
2022-08-30T06:10:20.752Z,6.33
2022-08-30T06:12:50.253Z,6.93
2022-08-30T06:15:18.616Z,6.07
2022-08-30T06:17:46.685Z,7.23
2022-08-30T06:20:18.808Z,6.53
2022-08-30T06:22:47.060Z,6.77
2022-08-30T06:25:16.363Z,6.63
2022-08-30T06:27:44.865Z,7.27
2022-08-30T06:30:15.136Z,7.23
2022-08-30T06:32:46.947Z,7.27
2022-08-30T06:35:15.058Z,7.03
2022-08-30T06:37:43.338Z,6.77
2022-08-30T06:40:13.479Z,7.40
2022-08-30T06:42:41.739Z,7.50
2022-08-30T06:45:11.296Z,7.33
2022-08-30T06:47:41.446Z,7.30
2022-08-30T06:50:14.348Z,7.30
2022-08-30T06:52:43.884Z,7.53
2022-08-30T06:55:13.365Z,7.23
2022-08-30T06:57:41.923Z,7.17
2022-08-30T07:00:14.295Z,7.33
2022-08-30T07:02:44.151Z,6.43
2022-08-30T07:05:18.033Z,6.67
2022-08-30T07:07:46.872Z,6.70
2022-08-30T07:10:15.769Z,6.60
2022-08-30T07:12:43.872Z,6.83
2022-08-30T07:15:13.229Z,6.77
2022-08-30T07:17:58.557Z,6.43
2022-08-30T07:20:28.238Z,6.40
2022-08-30T07:23:08.908Z,5.73
2022-08-30T07:25:38.132Z,6.10
2022-08-30T07:28:07.564Z,6.40
2022-08-30T07:30:36.090Z,6.40
2022-08-30T07:33:04.687Z,6.13
2022-08-30T07:35:34.364Z,6.00
2022-08-30T07:38:02.467Z,5.63
2022-08-30T07:40:30.756Z,6.23
2022-08-30T07:43:02.085Z,6.10
2022-08-30T07:45:30.359Z,5.77
2022-08-30T07:47:58.761Z,6.07
2022-08-30T07:50:26.958Z,6.70
2022-08-30T07:52:56.517Z,6.77
2022-08-30T07:55:24.780Z,5.47
2022-08-30T07:57:53.010Z,5.53
2022-08-30T08:00:21.285Z,5.63
2022-08-30T08:02:49.594Z,5.13
2022-08-30T08:05:19.409Z,5.10
2022-08-30T08:07:50.229Z,6.60
2022-08-30T08:10:19.611Z,5.60
2022-08-30T08:12:47.795Z,5.67
2022-08-30T08:15:16.507Z,5.40
2022-08-30T08:17:44.491Z,5.20
2022-08-30T08:20:12.700Z,5.40
2022-08-30T08:22:40.778Z,5.83
2022-08-30T08:25:09.680Z,9.60
2022-08-30T08:27:39.130Z,6.63
2022-08-30T08:30:08.367Z,5.67
2022-08-30T08:32:36.395Z,6.57
2022-08-30T08:35:05.063Z,7.27
2022-08-30T08:37:33.152Z,5.33
2022-08-30T08:40:01.268Z,6.63
2022-08-30T08:42:37.819Z,7.37
2022-08-30T08:45:13.337Z,23.93
2022-08-30T08:47:51.297Z,6.67
2022-08-30T08:50:22.128Z,4.87
2022-08-30T08:53:24.906Z,4.77
2022-08-30T08:55:59.128Z,9.67
2022-08-30T08:58:31.011Z,7.27
2022-08-30T09:01:00.862Z,5.43
2022-08-30T09:03:30.588Z,4.87
2022-08-30T09:06:13.058Z,5.27
2022-08-30T09:08:41.164Z,4.97
2022-08-30T09:11:15.539Z,5.97
2022-08-30T09:13:43.755Z,5.33
2022-08-30T09:16:54.190Z,4.90
2022-08-30T09:19:30.667Z,5.30
2022-08-30T09:22:05.733Z,5.33
2022-08-30T09:24:42.881Z,4.90
2022-08-30T09:27:24.067Z,4.60
2022-08-30T09:29:56.981Z,5.00
2022-08-30T09:32:34.185Z,4.97
2022-08-30T09:35:02.749Z,4.47
2022-08-30T09:37:36.922Z,4.60
2022-08-30T09:40:12.249Z,4.97
2022-08-30T09:42:40.456Z,5.10
2022-08-30T09:45:20.484Z,4.90
2022-08-30T09:47:50.001Z,5.07
2022-08-30T09:50:24.147Z,6.40
2022-08-30T09:53:00.978Z,7.80
2022-08-30T09:55:43.307Z,4.93
2022-08-30T09:58:21.596Z,4.63
2022-08-30T10:00:57.966Z,4.33
2022-08-30T10:06:33.734Z,5.53
2022-08-30T10:09:17.437Z,5.80
2022-08-30T10:11:54.663Z,5.10
2022-08-30T10:14:53.078Z,4.37
2022-08-30T10:17:39.154Z,4.20
2022-08-30T10:20:17.705Z,4.80
2022-08-30T10:22:51.389Z,5.87
2022-08-30T10:25:24.235Z,4.53
2022-08-30T10:27:59.102Z,4.70
2022-08-30T10:30:29.269Z,4.40
2022-08-30T10:33:05.958Z,4.17
2022-08-30T10:35:41.859Z,4.13
2022-08-30T10:38:20.123Z,4.33
2022-08-30T10:41:10.694Z,4.90
2022-08-30T10:43:53.455Z,4.40
2022-08-30T10:46:41.312Z,5.93
2022-08-30T10:49:19.717Z,4.30
2022-08-30T10:51:55.680Z,5.77
2022-08-30T10:54:35.973Z,4.57
2022-08-30T10:57:04.543Z,4.77
2022-08-30T10:59:34.809Z,4.40
2022-08-30T11:02:24.951Z,3.07
2022-08-30T11:05:19.445Z,4.30
2022-08-30T11:07:58.047Z,4.40
2022-08-30T11:10:55.153Z,4.20
2022-08-30T11:13:26.940Z,4.30
2022-08-30T11:16:00.915Z,4.10
2022-08-30T11:18:31.258Z,6.43
2022-08-30T11:21:18.811Z,4.17
2022-08-30T11:24:04.077Z,3.77
2022-08-30T11:26:54.620Z,4.27
2022-08-30T11:29:38.183Z,7.60
2022-08-30T11:32:59.479Z,10.53
2022-08-30T11:35:39.378Z,4.37
2022-08-30T11:38:22.729Z,4.10
2022-08-30T11:41:07.590Z,4.17
2022-08-30T11:43:55.558Z,4.67
2022-08-30T11:46:39.750Z,5.20
2022-08-30T11:49:37.468Z,4.23
2022-08-30T11:52:27.489Z,3.90
2022-08-30T11:55:22.023Z,4.43
2022-08-30T11:57:58.139Z,4.23
2022-08-30T12:00:35.083Z,4.53
2022-08-30T12:03:07.199Z,4.60
2022-08-30T12:05:59.002Z,4.60
2022-08-30T12:09:02.279Z,5.00
2022-08-30T12:12:05.836Z,4.57
2022-08-30T12:14:42.253Z,4.30
2022-08-30T12:17:41.593Z,4.57
2022-08-30T12:20:22.562Z,4.70
2022-08-30T12:22:51.774Z,4.43
2022-08-30T12:25:26.162Z,5.03
2022-08-30T12:28:14.407Z,4.33
2022-08-30T12:30:46.568Z,4.37
2022-08-30T12:33:29.240Z,4.23
2022-08-30T12:35:59.364Z,4.47
2022-08-30T12:38:28.403Z,4.30
2022-08-30T12:40:59.047Z,4.27
2022-08-30T12:43:40.222Z,5.00
2022-08-30T12:46:15.133Z,4.03
2022-08-30T12:48:44.852Z,4.30
2022-08-30T12:51:29.318Z,4.63
2022-08-30T12:54:07.104Z,4.40
2022-08-30T12:56:57.916Z,4.00
2022-08-30T12:59:54.061Z,4.10
2022-08-30T13:02:30.044Z,4.67
2022-08-30T13:04:59.086Z,4.07
2022-08-30T13:07:33.682Z,4.43
2022-08-30T13:10:16.870Z,4.17
2022-08-30T13:13:02.761Z,3.97
2022-08-30T13:15:33.864Z,4.07
2022-08-30T13:18:27.504Z,4.07
2022-08-30T13:21:12.345Z,4.10
2022-08-30T13:23:40.785Z,5.17
2022-08-30T13:26:09.669Z,4.67
2022-08-30T13:28:51.441Z,4.40
2022-08-30T13:31:19.937Z,3.97
2022-08-30T13:33:53.065Z,4.50
2022-08-30T13:36:24.635Z,4.23
2022-08-30T13:38:53.181Z,4.40
2022-08-30T13:41:21.597Z,4.40
2022-08-30T13:46:40.966Z,3.97
2022-08-30T13:52:20.228Z,4.00
2022-08-30T13:54:50.109Z,4.50
2022-08-30T14:00:14.439Z,4.03
2022-08-30T14:02:48.811Z,3.87
2022-08-30T14:05:46.930Z,4.33
2022-08-30T14:10:59.208Z,4.07
2022-08-30T14:13:29.097Z,4.10
2022-08-30T14:18:46.491Z,4.37
2022-08-30T14:21:15.785Z,4.10
2022-08-30T14:23:43.714Z,4.77
2022-08-30T14:26:14.918Z,4.23
2022-08-30T14:28:45.957Z,4.30
2022-08-30T14:31:20.434Z,4.20
2022-08-30T14:33:49.075Z,4.57
2022-08-30T14:36:18.646Z,4.40
2022-08-30T14:38:46.952Z,3.90
2022-08-30T14:41:16.847Z,4.30
2022-08-30T14:43:44.949Z,4.40
2022-08-30T14:46:13.268Z,4.23
2022-08-30T14:48:41.719Z,3.77
2022-08-30T14:51:15.476Z,4.33
2022-08-30T14:53:45.352Z,4.17
2022-08-30T14:56:15.831Z,4.10
2022-08-30T14:58:44.472Z,3.87
2022-08-30T15:01:13.655Z,4.07
2022-08-30T15:03:42.868Z,4.07
2022-08-30T15:06:12.420Z,3.90
2022-08-30T15:08:40.887Z,4.17
2022-08-30T15:11:13.501Z,4.37
2022-08-30T15:13:44.443Z,4.20
2022-08-30T15:16:15.628Z,3.80
2022-08-30T15:18:43.898Z,3.83
2022-08-30T15:21:12.681Z,3.90
2022-08-30T15:23:41.309Z,4.20
2022-08-30T15:26:10.803Z,3.80
2022-08-30T15:28:38.931Z,3.90
2022-08-30T15:31:09.314Z,4.33
2022-08-30T15:33:37.953Z,4.37
2022-08-30T15:36:07.148Z,4.33
2022-08-30T15:38:35.991Z,4.20
2022-08-30T15:41:07.868Z,3.83
2022-08-30T15:43:37.724Z,4.03
2022-08-30T15:46:17.315Z,4.07
2022-08-30T15:48:46.579Z,3.97
2022-08-30T15:51:16.680Z,4.13
2022-08-30T15:53:45.232Z,4.23
2022-08-30T15:56:13.489Z,4.33
2022-08-30T15:58:43.642Z,4.30
2022-08-30T16:01:13.004Z,3.63
2022-08-30T16:03:42.414Z,4.40
2022-08-30T16:06:15.154Z,6.60
2022-08-30T16:08:46.278Z,4.23
2022-08-30T16:11:16.675Z,3.93
2022-08-30T16:13:50.470Z,4.10
2022-08-30T16:16:20.737Z,3.97
2022-08-30T16:18:54.057Z,4.13
2022-08-30T16:21:26.202Z,4.33
2022-08-30T16:23:57.102Z,4.13
2022-08-30T16:26:26.104Z,4.20
2022-08-30T16:28:56.152Z,4.60
2022-08-30T16:31:25.980Z,4.73
2022-08-30T16:33:54.856Z,4.53
2022-08-30T16:36:30.494Z,4.30
2022-08-30T16:38:59.255Z,4.07
2022-08-30T16:41:27.587Z,4.23
2022-08-30T16:43:57.357Z,4.37
2022-08-30T16:46:29.003Z,4.57
2022-08-30T16:49:01.385Z,4.30
2022-08-30T16:51:32.161Z,4.27
2022-08-30T16:54:02.589Z,4.30
2022-08-30T16:56:32.922Z,4.37
2022-08-30T16:59:09.051Z,4.33
2022-08-30T17:01:39.215Z,4.30
2022-08-30T17:04:08.268Z,4.10
2022-08-30T17:06:36.598Z,4.37
2022-08-30T17:09:06.194Z,4.20
2022-08-30T17:11:34.736Z,4.10
2022-08-30T17:14:04.979Z,4.70
2022-08-30T17:16:34.932Z,4.30
2022-08-30T17:19:04.392Z,4.53
2022-08-30T17:21:33.394Z,4.30
2022-08-30T17:24:02.962Z,4.57
2022-08-30T17:26:32.367Z,4.27
2022-08-30T17:29:00.733Z,4.90
2022-08-30T17:31:31.110Z,4.47
2022-08-30T17:34:03.449Z,4.77
2022-08-30T17:36:35.623Z,4.60
2022-08-30T17:39:10.944Z,4.43
2022-08-30T17:41:45.269Z,4.80
2022-08-30T17:44:18.842Z,4.27
2022-08-30T17:46:48.751Z,4.17
2022-08-30T17:49:17.929Z,3.80
2022-08-30T17:51:47.698Z,4.47
2022-08-30T17:54:16.762Z,5.40
2022-08-30T17:56:46.206Z,4.20
2022-08-30T17:59:16.996Z,4.60
2022-08-30T18:01:46.860Z,4.43
2022-08-30T18:04:19.736Z,4.37
2022-08-30T18:06:48.588Z,5.17
2022-08-30T18:09:17.935Z,4.20
2022-08-30T18:11:46.084Z,4.90
2022-08-30T18:14:17.324Z,4.57
2022-08-30T18:16:53.637Z,4.40
2022-08-30T18:19:25.291Z,4.77
2022-08-30T18:21:54.304Z,5.20
2022-08-30T18:24:22.992Z,4.40
2022-08-30T18:26:52.168Z,4.70
2022-08-30T18:29:30.244Z,4.53
2022-08-30T18:32:00.422Z,4.70
2022-08-30T18:34:30.742Z,4.20
2022-08-30T18:36:58.967Z,4.90
2022-08-30T18:39:27.711Z,4.60
2022-08-30T18:41:56.812Z,4.87
2022-08-30T18:44:28.884Z,4.23
2022-08-30T18:47:00.495Z,4.70
2022-08-30T18:49:32.500Z,4.23
2022-08-30T18:52:01.276Z,4.93
2022-08-30T18:54:29.989Z,4.23
2022-08-30T18:56:58.237Z,4.30
2022-08-30T18:59:35.253Z,4.40
2022-08-30T19:02:07.477Z,4.57
2022-08-30T19:04:42.710Z,4.63
2022-08-30T19:07:14.770Z,4.57
2022-08-30T19:09:45.204Z,4.00
2022-08-30T19:12:13.960Z,4.53
2022-08-30T19:14:43.045Z,4.33
2022-08-30T19:17:11.474Z,4.33
2022-08-30T19:19:48.592Z,4.10
2022-08-30T19:22:19.638Z,4.00
2022-08-30T19:24:49.701Z,3.80
2022-08-30T19:27:19.223Z,4.10
2022-08-30T19:29:53.063Z,4.00
2022-08-30T19:32:23.464Z,3.97
2022-08-30T19:34:53.797Z,4.10
2022-08-30T19:37:21.889Z,3.90
2022-08-30T19:39:50.166Z,4.20
2022-08-30T19:42:19.893Z,3.73
2022-08-30T19:44:51.260Z,3.90
2022-08-30T19:47:19.451Z,3.77
2022-08-30T19:49:48.130Z,3.83
2022-08-30T19:52:18.048Z,4.20
2022-08-30T19:54:46.114Z,3.87
2022-08-30T19:57:14.263Z,4.17
2022-08-30T19:59:42.375Z,4.00
2022-08-30T20:02:10.869Z,4.07
2022-08-30T20:04:42.596Z,3.90
2022-08-30T20:07:11.101Z,3.67
2022-08-30T20:09:40.653Z,3.97
2022-08-30T20:12:09.199Z,3.97
2022-08-30T20:14:37.254Z,3.83
2022-08-30T20:17:05.912Z,4.00
2022-08-30T20:19:39.724Z,3.73
2022-08-30T20:22:08.584Z,3.53
2022-08-30T20:24:37.796Z,3.63
2022-08-30T20:27:12.194Z,3.20
2022-08-30T20:29:41.961Z,3.53
2022-08-30T20:32:10.149Z,3.40
2022-08-30T20:34:39.685Z,3.50
2022-08-30T20:37:09.799Z,3.53
2022-08-30T20:39:39.148Z,3.30
2022-08-30T20:42:07.707Z,2.80
2022-08-30T20:44:38.313Z,3.37
2022-08-30T20:47:06.877Z,3.27
2022-08-30T20:49:35.580Z,3.00
2022-08-30T20:52:04.883Z,3.00
2022-08-30T20:54:33.452Z,3.00
2022-08-30T20:57:02.024Z,3.10
2022-08-30T20:59:31.276Z,3.30
2022-08-30T21:02:01.260Z,3.10
2022-08-30T21:04:31.627Z,3.00
2022-08-30T21:06:59.713Z,3.40
2022-08-30T21:09:27.804Z,3.37
2022-08-30T21:11:55.932Z,2.90
2022-08-30T21:14:24.112Z,3.13
2022-08-30T21:16:52.533Z,3.00
2022-08-30T21:19:22.067Z,3.00
2022-08-30T21:21:50.229Z,3.17
2022-08-30T21:24:18.395Z,3.10
2022-08-30T21:26:46.572Z,3.27
2022-08-30T21:29:15.134Z,3.00
2022-08-30T21:31:43.341Z,2.90
2022-08-30T21:34:17.516Z,2.90
2022-08-30T21:36:46.898Z,3.07
2022-08-30T21:39:21.455Z,3.20
2022-08-30T21:41:51.242Z,3.10
2022-08-30T21:44:21.987Z,3.30
2022-08-30T21:46:52.194Z,3.00
2022-08-30T21:49:22.617Z,3.27
2022-08-30T21:51:55.324Z,3.70
2022-08-30T21:54:24.609Z,3.30
2022-08-30T21:57:01.390Z,2.77
2022-08-30T21:59:29.895Z,3.20
2022-08-30T22:01:59.083Z,3.20
2022-08-30T22:04:29.554Z,3.13
2022-08-30T22:06:59.379Z,3.13
2022-08-30T22:09:27.600Z,3.20
2022-08-30T22:11:56.026Z,3.47
2022-08-30T22:14:24.804Z,3.30
2022-08-30T22:16:54.966Z,3.07
2022-08-30T22:19:23.578Z,3.37
2022-08-30T22:21:55.450Z,2.87
2022-08-30T22:24:32.237Z,3.33
2022-08-30T22:27:01.998Z,3.07
2022-08-30T22:29:30.230Z,3.20
2022-08-30T22:31:58.594Z,3.57
2022-08-30T22:34:27.138Z,3.03
2022-08-30T22:36:55.632Z,3.30
2022-08-30T22:39:23.664Z,3.07
2022-08-30T22:41:53.238Z,3.10
2022-08-30T22:44:21.367Z,3.03
2022-08-30T22:46:49.443Z,3.10
2022-08-30T22:49:17.522Z,3.37
2022-08-30T22:51:45.632Z,3.60
2022-08-30T22:54:13.762Z,3.07
2022-08-30T22:56:41.866Z,2.70
2022-08-30T22:59:11.585Z,3.10
2022-08-30T23:01:43.058Z,2.70
2022-08-30T23:04:12.731Z,3.20
2022-08-30T23:06:42.490Z,3.13
2022-08-30T23:09:19.200Z,2.90
2022-08-30T23:11:47.403Z,3.00
2022-08-30T23:14:17.024Z,2.93
2022-08-30T23:16:45.428Z,3.10
2022-08-30T23:19:13.620Z,3.23
2022-08-30T23:21:41.705Z,3.07
2022-08-30T23:24:27.051Z,2.60
2022-08-30T23:27:13.311Z,3.03
2022-08-30T23:30:00.641Z,2.80
2022-08-30T23:32:45.974Z,3.27
2022-08-30T23:35:32.457Z,3.03
2022-08-30T23:38:20.975Z,3.13
2022-08-30T23:41:06.355Z,3.13
2022-08-30T23:43:51.666Z,3.07
2022-08-30T23:46:41.573Z,2.97
2022-08-30T23:49:26.703Z,2.90
2022-08-30T23:52:12.011Z,3.03
2022-08-30T23:54:57.712Z,3.47
2022-08-30T23:57:43.976Z,2.90
